Time;durP1;ratioP1;P1;durP2;ratioP2;P2;SDS_P1;SDS_P2;PMS_P1;PMS_P2;Temp;Humidity;BMP_temperature;BMP_pressure;BME280_temperature;BME280_humidity;BME280_pressure;Samples;Min_cycle;Max_cycle;Signal;HPM_P1;HPM_P2
2022/07/20 00:00:09;;;;;;;6.22;3.70;;;;;;;25.76;41.71;95727.13;6214244;23;20174;-85
2022/07/20 00:02:36;;;;;;;5.00;3.33;;;;;;;25.76;41.63;95720.00;6214046;23;20542;-85
2022/07/20 00:05:05;;;;;;;3.80;2.95;;;;;;;25.75;41.48;95721.06;6216065;23;20214;-85
2022/07/20 00:07:32;;;;;;;4.05;3.25;;;;;;;25.67;42.24;95726.88;6215729;23;20190;-85
2022/07/20 00:12:42;;;;;;;5.20;3.40;;;;;;;25.60;42.18;95720.25;6214725;23;20220;-85
2022/07/20 00:15:10;;;;;;;6.20;3.47;;;;;;;25.49;42.41;95722.13;6215747;23;20224;-85
2022/07/20 00:17:36;;;;;;;4.65;3.28;;;;;;;25.40;43.12;95721.88;6215067;23;20711;-85
2022/07/20 00:20:05;;;;;;;4.60;3.30;;;;;;;25.44;42.72;95724.78;6215279;23;20181;-84
2022/07/20 00:22:31;;;;;;;3.90;3.25;;;;;;;25.44;42.13;95725.56;6215974;23;20174;-85
2022/07/20 00:24:58;;;;;;;4.97;3.00;;;;;;;25.43;42.78;95723.19;6215249;23;20205;-86
2022/07/20 00:27:24;;;;;;;6.05;3.30;;;;;;;25.43;42.88;95721.34;6216224;23;20181;-85
2022/07/20 00:29:51;;;;;;;5.50;3.42;;;;;;;25.31;43.28;95717.41;6215659;23;20517;-85
2022/07/20 00:32:17;;;;;;;6.20;3.47;;;;;;;25.24;43.36;95712.41;6214464;23;20178;-85
2022/07/20 00:34:44;;;;;;;3.83;3.38;;;;;;;25.19;43.24;95714.28;6215753;23;20679;-85
2022/07/20 00:37:12;;;;;;;6.05;3.58;;;;;;;25.09;43.59;95702.69;6215559;23;20662;-85
2022/07/20 00:39:38;;;;;;;5.45;3.25;;;;;;;25.06;43.58;95707.69;6215805;23;20490;-84
2022/07/20 00:42:05;;;;;;;3.65;3.35;;;;;;;25.04;43.89;95709.78;6215668;23;20284;-85
2022/07/20 00:44:31;;;;;;;3.95;3.13;;;;;;;24.92;44.36;95711.88;6216097;23;20208;-85
2022/07/20 00:46:58;;;;;;;5.38;3.28;;;;;;;24.87;43.89;95704.75;6216403;23;20690;-85
2022/07/20 00:49:24;;;;;;;4.32;3.60;;;;;;;24.84;44.55;95707.13;6216156;23;20188;-85
2022/07/20 00:51:51;;;;;;;5.45;3.38;;;;;;;24.95;43.82;95706.13;6215627;23;20178;-85
2022/07/20 00:54:20;;;;;;;5.05;3.58;;;;;;;25.03;43.67;95711.63;6215116;23;20208;-85
2022/07/20 00:56:46;;;;;;;5.20;3.53;;;;;;;25.01;43.49;95695.31;6217114;23;20170;-84
2022/07/20 00:59:13;;;;;;;4.72;3.30;;;;;;;24.93;44.27;95697.66;6215321;23;20177;-85
2022/07/20 01:01:40;;;;;;;6.18;3.17;;;;;;;24.90;44.36;95703.44;6214287;23;20682;-85
2022/07/20 01:04:07;;;;;;;9.32;4.47;;;;;;;24.84;44.40;95696.59;6214459;23;20484;-85
2022/07/20 01:06:33;;;;;;;4.15;3.45;;;;;;;24.88;44.41;95700.28;6215695;23;20178;-86
2022/07/20 01:09:00;;;;;;;4.47;3.50;;;;;;;24.77;44.77;95704.75;6215723;23;20178;-85
2022/07/20 01:11:28;;;;;;;3.63;3.33;;;;;;;24.67;44.95;95705.53;6214213;23;20514;-84
2022/07/20 01:14:00;;;;;;;5.10;3.60;;;;;;;24.55;45.00;95709.47;6214736;23;20205;-85
2022/07/20 01:16:27;;;;;;;4.28;3.50;;;;;;;24.48;45.08;95696.56;6216624;23;20162;-85
2022/07/20 01:18:53;;;;;;;3.72;2.90;;;;;;;24.37;45.58;95697.59;6217435;23;20595;-85
2022/07/20 01:21:21;;;;;;;4.38;3.50;;;;;;;24.21;45.82;95688.06;6216613;23;20203;-85
2022/07/20 01:23:48;;;;;;;3.35;3.05;;;;;;;24.15;46.25;95687.25;6217682;23;20205;-85
2022/07/20 01:26:16;;;;;;;4.55;2.97;;;;;;;24.21;46.14;95691.50;6217067;23;20197;-85
2022/07/20 01:28:43;;;;;;;5.07;3.45;;;;;;;24.20;45.84;95684.63;6217930;23;20537;-85
2022/07/20 01:31:09;;;;;;;3.45;3.00;;;;;;;24.29;45.39;95690.19;6216266;23;20177;-85
2022/07/20 01:33:36;;;;;;;3.97;3.17;;;;;;;24.18;46.54;95699.91;6217021;23;20212;-85
2022/07/20 01:36:03;;;;;;;4.32;3.30;;;;;;;24.22;46.40;95695.69;6216883;23;20198;-85
2022/07/20 01:38:31;;;;;;;5.80;3.30;;;;;;;24.17;46.60;95703.56;6217708;23;20173;-85
2022/07/20 01:40:59;;;;;;;4.10;3.28;;;;;;;24.21;46.11;95691.50;6216752;23;20820;-85
2022/07/20 01:43:25;;;;;;;3.40;3.10;;;;;;;24.19;46.28;95690.16;6217158;23;20546;-85
2022/07/20 01:45:52;;;;;;;4.38;3.40;;;;;;;24.27;45.89;95694.94;6216754;23;20200;-84
2022/07/20 01:48:19;;;;;;;5.10;3.50;;;;;;;24.17;46.59;95694.88;6217993;23;20178;-85
2022/07/20 01:50:45;;;;;;;5.40;3.38;;;;;;;24.08;46.91;95684.84;6216780;23;20222;-85
2022/07/20 01:53:11;;;;;;;4.88;3.17;;;;;;;24.12;46.85;95685.13;6216895;23;20209;-85
2022/07/20 01:55:39;;;;;;;4.93;3.45;;;;;;;24.08;46.67;95695.38;6217198;23;20533;-85
2022/07/20 01:58:06;;;;;;;5.20;3.35;;;;;;;24.02;46.54;95693.00;6217672;23;20204;-85
2022/07/20 02:00:32;;;;;;;4.30;3.40;;;;;;;24.00;46.74;95693.25;6216933;23;20184;-85
2022/07/20 02:02:59;;;;;;;7.05;3.40;;;;;;;23.92;47.12;95688.50;6216654;23;20709;-85
2022/07/20 02:05:26;;;;;;;4.05;3.30;;;;;;;23.89;47.29;95689.00;6217061;23;20189;-85
2022/07/20 02:07:52;;;;;;;3.25;2.95;;;;;;;23.99;46.96;95693.53;6217754;23;20178;-85
2022/07/20 02:10:18;;;;;;;3.50;3.20;;;;;;;24.07;46.90;95693.78;6216763;23;20177;-85
2022/07/20 02:12:46;;;;;;;6.60;2.97;;;;;;;23.98;47.32;95695.34;6216451;23;20206;-85
2022/07/20 02:16:14;;;;;;;5.63;3.30;;;;;;;24.02;46.63;95691.16;6216795;23;20198;-85
2022/07/20 02:18:06;;;;;;;7.35;3.42;;;;;;;23.95;47.42;95690.59;6216849;23;20209;-85
2022/07/20 02:20:32;;;;;;;3.90;3.50;;;;;;;23.96;46.82;95686.94;6216596;23;20161;-86
2022/07/20 02:22:59;;;;;;;4.45;3.67;;;;;;;23.94;47.15;95689.03;6215283;23;20259;-85
2022/07/20 02:25:25;;;;;;;6.50;3.70;;;;;;;23.99;46.84;95690.88;6216940;23;20205;-85
2022/07/20 02:27:54;;;;;;;3.78;3.47;;;;;;;23.96;47.35;95686.94;6217037;23;20213;-85
2022/07/20 02:30:20;;;;;;;3.97;3.25;;;;;;;23.83;47.81;95689.25;6216165;23;20178;-85
2022/07/20 02:32:47;;;;;;;3.78;3.42;;;;;;;23.87;47.36;95690.28;6222973;23;20208;-85
2022/07/20 02:35:13;;;;;;;3.92;3.53;;;;;;;23.62;47.97;95694.41;6225753;23;20205;-86
2022/07/20 02:37:39;;;;;;;4.47;3.10;;;;;;;23.56;48.01;95690.16;6225294;23;20177;-85
2022/07/20 02:40:08;;;;;;;6.03;3.70;;;;;;;23.63;47.63;95682.84;6221702;23;20178;-86
2022/07/20 02:42:34;;;;;;;4.97;3.55;;;;;;;23.62;48.05;95689.16;6215575;23;20204;-84
2022/07/20 02:45:03;;;;;;;5.50;3.80;;;;;;;23.62;48.18;95689.16;6216431;23;20397;-85
2022/07/20 02:47:29;;;;;;;5.18;3.20;;;;;;;23.66;48.15;95694.72;6215889;23;20181;-85
2022/07/20 02:49:56;;;;;;;5.03;3.45;;;;;;;23.52;48.68;95686.47;6216181;23;20180;-85
2022/07/20 02:52:22;;;;;;;4.45;3.47;;;;;;;23.48;48.61;95689.81;6217868;23;20260;-85
2022/07/20 02:54:48;;;;;;;4.95;3.70;;;;;;;23.51;48.79;95694.56;6216330;23;20201;-85
2022/07/20 02:57:15;;;;;;;3.80;3.42;;;;;;;23.59;48.19;95694.13;6216857;23;20173;-85
2022/07/20 02:59:41;;;;;;;5.43;3.35;;;;;;;23.64;48.20;95692.31;6216228;23;20181;-85
2022/07/20 03:02:09;;;;;;;4.72;3.42;;;;;;;23.60;48.31;95693.09;6215925;23;20184;-85
2022/07/20 03:04:35;;;;;;;3.92;3.53;;;;;;;23.63;48.49;95700.47;6215266;23;20213;-85
2022/07/20 03:07:02;;;;;;;3.90;3.25;;;;;;;23.63;48.26;95698.63;6216864;23;20181;-85
2022/07/20 03:09:28;;;;;;;4.03;3.30;;;;;;;23.65;47.87;95693.91;6217807;23;20368;-85
2022/07/20 03:11:55;;;;;;;4.45;3.53;;;;;;;23.58;48.17;95703.84;6215656;23;20196;-85
2022/07/20 03:14:21;;;;;;;5.18;3.83;;;;;;;23.53;48.15;95705.66;6215133;23;20209;-85
2022/07/20 03:16:50;;;;;;;4.78;3.60;;;;;;;23.18;49.39;95691.22;6216522;23;20200;-85
2022/07/20 03:19:20;;;;;;;4.55;3.47;;;;;;;23.04;49.46;95701.38;6215241;23;20188;-85
2022/07/20 03:21:47;;;;;;;4.32;3.72;;;;;;;22.99;50.09;95698.72;6215836;23;20177;-85
2022/07/20 03:24:13;;;;;;;6.68;3.75;;;;;;;23.06;49.48;95701.94;6215366;23;20213;-85
2022/07/20 03:26:40;;;;;;;5.53;3.50;;;;;;;23.06;49.65;95703.78;6216635;23;20488;-85
2022/07/20 03:29:06;;;;;;;5.20;3.67;;;;;;;23.08;49.63;95693.81;6216835;23;20174;-85
2022/07/20 03:31:32;;;;;;;8.02;4.07;;;;;;;23.14;49.67;95700.66;6215946;23;20180;-86
2022/07/20 03:33:59;;;;;;;3.78;3.30;;;;;;;23.08;50.08;95702.47;6216042;23;20217;-85
2022/07/20 03:36:27;;;;;;;8.93;3.83;;;;;;;22.78;50.59;95701.44;6217169;23;20197;-85
2022/07/20 03:38:53;;;;;;;7.07;3.58;;;;;;;22.92;50.85;95699.97;6216846;23;20181;-85
2022/07/20 03:41:19;;;;;;;4.40;3.47;;;;;;;23.15;49.89;95704.88;6216633;23;20197;-85
2022/07/20 03:43:46;;;;;;;10.73;3.88;;;;;;;23.16;49.90;95708.28;6215868;23;20211;-84
2022/07/20 03:46:17;;;;;;;4.38;3.60;;;;;;;23.04;50.56;95705.84;6216842;23;20196;-84
2022/07/20 03:48:45;;;;;;;5.55;4.10;;;;;;;23.01;50.51;95701.09;6216576;23;20165;-84
2022/07/20 03:51:12;;;;;;;4.47;3.60;;;;;;;23.17;50.07;95704.63;6215285;23;20212;-84
2022/07/20 03:53:40;;;;;;;3.83;3.53;;;;;;;23.36;49.97;95703.97;6215369;23;20201;-84
2022/07/20 03:56:07;;;;;;;7.30;3.40;;;;;;;23.54;49.36;95704.63;6215342;23;20224;-85
2022/07/20 03:58:33;;;;;;;3.72;3.28;;;;;;;23.77;49.23;95710.25;6215385;23;20233;-85
2022/07/20 04:00:59;;;;;;;3.70;3.40;;;;;;;23.96;48.55;95704.56;6214675;23;20177;-85
2022/07/20 04:03:26;;;;;;;5.15;3.85;;;;;;;24.08;48.03;95715.63;6213202;23;20543;-84
2022/07/20 04:05:52;;;;;;;7.65;3.85;;;;;;;24.25;48.10;95705.72;6214908;23;20524;-84
2022/07/20 04:08:19;;;;;;;6.30;4.28;;;;;;;24.35;47.55;95710.22;6215019;23;20185;-84
2022/07/20 04:10:46;;;;;;;5.07;4.03;;;;;;;24.36;47.48;95714.44;6214670;23;20174;-84
2022/07/20 04:13:13;;;;;;;6.05;3.95;;;;;;;24.37;46.93;95718.66;6214492;23;20201;-84
2022/07/20 04:15:39;;;;;;;4.72;4.20;;;;;;;24.33;47.51;95713.13;6214740;23;20208;-85
2022/07/20 04:18:06;;;;;;;7.32;3.90;;;;;;;24.42;47.52;95721.31;6215781;23;20643;-85
2022/07/20 04:20:32;;;;;;;5.22;4.25;;;;;;;24.47;47.12;95718.66;6215285;23;20185;-85
2022/07/20 04:22:59;;;;;;;5.82;4.20;;;;;;;24.53;46.80;95712.38;6214757;23;20201;-85
2022/07/20 04:25:25;;;;;;;9.25;4.20;;;;;;;24.63;46.21;95711.59;6214700;23;20208;-85
2022/07/20 04:27:53;;;;;;;5.00;4.20;;;;;;;24.70;46.43;95712.13;6216106;23;20178;-85
2022/07/20 04:30:20;;;;;;;7.43;4.00;;;;;;;24.83;46.48;95718.72;6216246;23;20177;-85
2022/07/20 04:32:46;;;;;;;8.27;4.25;;;;;;;24.92;46.41;95710.03;6217423;23;20198;-84
2022/07/20 04:35:13;;;;;;;6.72;4.05;;;;;;;24.89;46.26;95709.75;6217955;23;20209;-85
2022/07/20 04:37:40;;;;;;;5.10;4.00;;;;;;;24.89;46.30;95709.75;6218941;23;20198;-85
2022/07/20 04:40:07;;;;;;;10.77;4.90;;;;;;;24.84;46.35;95720.28;6217522;23;20538;-84
2022/07/20 04:42:34;;;;;;;8.38;5.00;;;;;;;24.85;46.35;95727.13;6217377;23;20205;-85
2022/07/20 04:45:02;;;;;;;4.80;4.40;;;;;;;24.82;46.38;95725.84;6218777;23;20200;-85
2022/07/20 04:47:28;;;;;;;7.00;4.50;;;;;;;24.85;46.58;95729.78;6217831;23;20174;-84
2022/07/20 04:49:55;;;;;;;6.45;4.20;;;;;;;24.84;46.61;95734.25;6217371;23;20178;-85
2022/07/20 04:52:21;;;;;;;5.07;4.30;;;;;;;25.02;46.42;95728.50;6216031;23;20189;-84
2022/07/20 04:54:48;;;;;;;10.85;4.55;;;;;;;25.13;46.05;95729.28;6219512;23;20221;-84
2022/07/20 04:57:14;;;;;;;5.18;4.38;;;;;;;25.25;46.05;95729.00;6222096;23;20188;-85
2022/07/20 04:59:40;;;;;;;7.05;4.50;;;;;;;25.33;45.76;95724.00;6221610;23;20517;-85
2022/07/20 05:02:08;;;;;;;4.88;4.47;;;;;;;25.43;45.47;95729.25;6220399;23;20177;-84
2022/07/20 05:04:35;;;;;;;8.80;5.15;;;;;;;25.54;45.31;95716.84;6221194;23;20209;-85
2022/07/20 05:07:01;;;;;;;6.20;4.55;;;;;;;25.64;45.05;95724.75;6222211;23;20182;-84
2022/07/20 05:09:28;;;;;;;5.40;4.47;;;;;;;25.57;45.30;95720.81;6221598;23;20729;-85
2022/07/20 05:11:54;;;;;;;5.03;4.53;;;;;;;25.47;45.71;95725.03;6219267;23;20181;-84
2022/07/20 05:14:20;;;;;;;6.82;4.88;;;;;;;25.46;45.49;95728.72;6220973;23;20209;-84
2022/07/20 05:16:47;;;;;;;6.68;4.93;;;;;;;25.40;45.80;95727.13;6220141;23;20193;-85
2022/07/20 05:19:15;;;;;;;7.00;6.22;;;;;;;25.48;45.67;95731.88;6220549;23;20177;-84
2022/07/20 05:21:41;;;;;;;12.52;10.73;;;;;;;25.57;45.44;95732.16;6220701;23;20176;-85
2022/07/20 05:24:08;;;;;;;10.18;7.15;;;;;;;25.50;45.58;95723.72;6219889;23;20205;-84
2022/07/20 05:26:35;;;;;;;5.80;4.97;;;;;;;25.46;46.02;95725.28;6220533;23;20162;-85
2022/07/20 05:29:01;;;;;;;6.00;4.93;;;;;;;25.43;46.28;95720.56;6220905;23;20181;-84
2022/07/20 05:31:28;;;;;;;5.38;4.88;;;;;;;25.54;45.91;95730.03;6218756;23;20181;-85
2022/07/20 05:33:54;;;;;;;5.30;4.80;;;;;;;25.64;45.68;95726.59;6220177;23;20205;-84
2022/07/20 05:36:23;;;;;;;5.38;4.85;;;;;;;25.67;45.66;95726.88;6220787;23;20198;-85
2022/07/20 05:38:50;;;;;;;8.43;5.05;;;;;;;25.63;45.83;95725.03;6219764;23;20189;-84
2022/07/20 05:41:16;;;;;;;4.97;4.57;;;;;;;25.73;45.76;95727.66;6218360;23;20178;-84
2022/07/20 05:43:43;;;;;;;10.00;5.00;;;;;;;25.74;45.61;95724.75;6219893;23;20205;-85
2022/07/20 05:46:09;;;;;;;5.90;4.90;;;;;;;25.85;45.70;95727.34;6219664;23;20197;-84
2022/07/20 05:48:36;;;;;;;7.53;5.38;;;;;;;25.92;45.43;95728.63;6219157;23;20177;-84
2022/07/20 05:51:02;;;;;;;5.93;5.15;;;;;;;25.95;45.34;95732.59;6219122;23;20189;-84
2022/07/20 05:53:30;;;;;;;6.68;5.00;;;;;;;25.96;45.54;95734.97;6219360;23;20205;-85
2022/07/20 05:55:57;;;;;;;7.28;4.95;;;;;;;25.94;45.49;95736.28;6218389;23;20197;-84
2022/07/20 05:58:23;;;;;;;6.07;5.05;;;;;;;25.98;45.45;95743.38;6219520;23;20238;-84
2022/07/20 06:00:49;;;;;;;7.75;5.32;;;;;;;25.98;45.62;95739.97;6218488;23;20173;-85
2022/07/20 06:03:16;;;;;;;5.70;5.03;;;;;;;26.09;45.45;95744.94;6218559;23;20216;-84
2022/07/20 06:05:43;;;;;;;6.47;5.22;;;;;;;26.11;45.30;95736.75;6219908;23;20211;-84
2022/07/20 06:08:09;;;;;;;9.55;5.00;;;;;;;26.12;45.60;95744.41;6220399;23;20521;-84
2022/07/20 06:10:37;;;;;;;8.63;5.00;;;;;;;26.14;45.42;95752.84;6218136;23;20884;-84
2022/07/20 06:13:04;;;;;;;6.63;4.90;;;;;;;26.15;45.78;95751.00;6216762;23;20202;-85
2022/07/20 06:15:31;;;;;;;6.13;5.47;;;;;;;26.17;45.70;95747.00;6217045;23;20197;-85
2022/07/20 06:18:01;;;;;;;7.97;5.38;;;;;;;26.19;45.49;95746.72;6217132;23;20180;-84
2022/07/20 06:20:30;;;;;;;7.25;5.13;;;;;;;26.24;45.39;95740.63;6214776;23;20244;-85
2022/07/20 06:22:58;;;;;;;6.15;5.15;;;;;;;26.17;45.69;95736.44;6206891;23;20209;-85
2022/07/20 06:25:27;;;;;;;8.57;5.93;;;;;;;26.23;45.52;95742.50;6202950;23;20288;-85
2022/07/20 06:27:58;;;;;;;7.78;5.28;;;;;;;26.30;45.98;95740.38;6209334;23;20224;-85
2022/07/20 06:30:25;;;;;;;10.02;5.82;;;;;;;26.39;45.54;95740.59;6211939;23;20162;-85
2022/07/20 06:32:58;;;;;;;7.38;5.50;;;;;;;26.42;45.65;95737.41;6211424;23;20208;-85
2022/07/20 06:35:26;;;;;;;11.75;6.10;;;;;;;26.43;45.56;95741.63;6215559;23;20200;-85
2022/07/20 06:37:53;;;;;;;9.98;6.28;;;;;;;26.49;45.46;95743.97;6215468;23;20201;-85
2022/07/20 06:40:20;;;;;;;12.82;5.70;;;;;;;26.58;45.16;95746.03;6215718;23;20238;-84
2022/07/20 06:42:46;;;;;;;7.55;6.05;;;;;;;26.63;45.26;95753.94;6213289;23;20201;-85
2022/07/20 06:45:16;;;;;;;8.88;6.05;;;;;;;26.64;45.75;95750.22;6214057;23;20197;-86
2022/07/20 06:47:43;;;;;;;8.20;5.63;;;;;;;26.72;45.37;95755.72;6212083;23;20161;-86
2022/07/20 06:50:10;;;;;;;7.65;5.90;;;;;;;26.81;45.11;95751.44;6211664;23;20178;-86
2022/07/20 06:52:36;;;;;;;10.32;6.10;;;;;;;26.88;45.16;95750.34;6209839;23;20209;-86
2022/07/20 06:55:04;;;;;;;13.65;6.05;;;;;;;26.94;45.10;95759.81;6216596;23;20197;-85
2022/07/20 06:57:31;;;;;;;6.82;5.65;;;;;;;27.00;45.12;95751.59;6220533;23;20193;-85
2022/07/20 06:59:57;;;;;;;7.50;5.88;;;;;;;27.02;44.73;95757.41;6223346;23;20169;-86
2022/07/20 07:02:25;;;;;;;8.63;5.68;;;;;;;27.07;44.29;95760.00;6210936;23;20189;-84
2022/07/20 07:04:52;;;;;;;8.60;6.15;;;;;;;27.07;44.50;95770.59;6216474;23;20205;-84
2022/07/20 07:07:19;;;;;;;9.23;6.05;;;;;;;27.13;44.41;95756.25;6212882;23;20599;-84
2022/07/20 07:09:45;;;;;;;7.88;5.47;;;;;;;27.18;44.59;95761.50;6213160;23;20257;-83
2022/07/20 07:12:12;;;;;;;8.10;5.65;;;;;;;27.30;44.63;95766.44;6211637;23;20185;-84
2022/07/20 07:14:38;;;;;;;6.68;5.57;;;;;;;27.39;44.05;95759.47;6211814;23;20197;-84
2022/07/20 07:17:05;;;;;;;7.30;5.75;;;;;;;27.54;43.88;95761.19;6211491;23;20197;-84
2022/07/20 07:19:32;;;;;;;7.32;5.53;;;;;;;27.66;43.19;95766.13;6212715;23;20177;-83
2022/07/20 07:21:59;;;;;;;6.93;4.90;;;;;;;27.71;43.18;95761.56;6209875;23;20511;-83
2022/07/20 07:24:25;;;;;;;7.30;5.55;;;;;;;27.79;42.96;95760.16;6209501;23;20217;-84
2022/07/20 07:26:52;;;;;;;6.85;6.10;;;;;;;27.91;42.43;95755.25;6210726;23;20154;-84
2022/07/20 07:29:19;;;;;;;5.68;5.18;;;;;;;27.99;42.28;95759.16;6211076;23;20177;-84
2022/07/20 07:31:46;;;;;;;10.25;5.30;;;;;;;28.11;42.39;95755.03;6209752;23;20564;-83
2022/07/20 07:34:12;;;;;;;6.00;5.40;;;;;;;28.22;42.57;95754.97;6209933;23;20791;-84
2022/07/20 07:36:40;;;;;;;5.82;5.32;;;;;;;28.27;41.56;95761.00;6210826;23;20678;-83
2022/07/20 07:39:07;;;;;;;8.50;5.18;;;;;;;28.35;41.79;95747.09;6210573;23;20181;-85
2022/07/20 07:41:33;;;;;;;6.53;4.97;;;;;;;28.46;41.60;95758.38;6209368;23;20665;-84
2022/07/20 07:43:59;;;;;;;9.55;6.03;;;;;;;28.57;41.72;95754.50;6210365;23;20555;-83
2022/07/20 07:46:26;;;;;;;7.82;5.60;;;;;;;28.59;41.17;95741.75;6211827;23;20181;-84
2022/07/20 07:48:54;;;;;;;11.70;5.43;;;;;;;28.70;41.06;95750.31;6213192;23;20184;-84
2022/07/20 07:51:20;;;;;;;6.18;5.63;;;;;;;28.78;40.71;95752.34;6210137;23;20268;-84
2022/07/20 07:53:48;;;;;;;8.55;5.25;;;;;;;28.90;40.93;95747.41;6210837;23;20204;-83
2022/07/20 07:56:15;;;;;;;9.02;5.57;;;;;;;28.97;40.87;95752.34;6210053;23;20665;-84
2022/07/20 07:58:41;;;;;;;8.48;5.55;;;;;;;29.01;40.04;95758.66;6211081;23;20181;-84
2022/07/20 08:01:08;;;;;;;8.02;5.70;;;;;;;28.98;39.08;95762.66;6210035;23;20182;-84
2022/07/20 08:03:34;;;;;;;7.07;5.65;;;;;;;29.03;38.71;95757.31;6210180;23;20236;-84
2022/07/20 08:06:04;;;;;;;6.20;5.57;;;;;;;29.16;38.91;95758.41;6218083;23;20257;-84
2022/07/20 08:08:30;;;;;;;7.10;5.85;;;;;;;29.24;38.22;95759.63;6223840;23;20204;-83
2022/07/20 08:10:58;;;;;;;6.97;5.47;;;;;;;29.41;38.42;95751.94;6221738;23;20181;-83
2022/07/20 08:13:25;;;;;;;7.32;5.97;;;;;;;29.52;38.68;95750.69;6221607;23;20244;-84
2022/07/20 08:15:51;;;;;;;6.97;5.80;;;;;;;29.68;38.16;95754.63;6224239;23;20197;-83
2022/07/20 08:18:18;;;;;;;8.07;6.10;;;;;;;29.82;38.16;95747.47;6222529;23;20197;-84
2022/07/20 08:20:44;;;;;;;7.55;5.78;;;;;;;29.90;37.35;95748.66;6222296;23;20285;-84
2022/07/20 08:23:11;;;;;;;8.13;5.97;;;;;;;30.04;37.70;95746.00;6224858;23;20344;-84
2022/07/20 08:25:37;;;;;;;15.70;6.40;;;;;;;30.18;37.57;95747.59;6217234;23;20201;-83
2022/07/20 08:28:13;;;;;;;6.50;5.93;;;;;;;30.29;36.85;95750.81;6217293;23;20189;-84
2022/07/20 08:30:40;;;;;;;7.32;6.05;;;;;;;30.25;37.29;95752.50;6216802;23;20162;-84
2022/07/20 08:33:08;;;;;;;8.60;6.30;;;;;;;30.24;36.76;95749.03;6212389;23;20192;-84
2022/07/20 08:35:36;;;;;;;7.90;5.93;;;;;;;30.42;37.17;95743.91;6212980;23;20193;-84
2022/07/20 08:38:04;;;;;;;6.50;5.63;;;;;;;30.50;36.74;95740.56;6215557;23;20492;-83
2022/07/20 08:40:31;;;;;;;8.90;6.10;;;;;;;30.61;36.70;95741.91;6214078;23;20193;-84
2022/07/20 08:42:58;;;;;;;7.03;6.38;;;;;;;30.68;36.30;95736.19;6214019;23;20209;-83
2022/07/20 08:45:26;;;;;;;6.43;5.47;;;;;;;30.86;36.53;95738.69;6215106;23;20197;-83
2022/07/20 08:47:53;;;;;;;10.32;5.93;;;;;;;31.04;35.78;95744.91;6213080;23;20193;-85
2022/07/20 08:50:22;;;;;;;6.68;5.75;;;;;;;31.14;34.84;95742.06;6212794;23;20176;-85
2022/07/20 08:52:49;;;;;;;6.78;5.97;;;;;;;31.18;35.17;95743.00;6211733;23;20217;-85
2022/07/20 08:55:15;;;;;;;5.72;5.22;;;;;;;31.19;34.58;95744.56;6211686;23;20740;-85
2022/07/20 08:57:43;;;;;;;8.25;6.03;;;;;;;31.27;34.74;95734.31;6212577;23;20202;-85
2022/07/20 09:00:14;;;;;;;6.50;5.82;;;;;;;31.39;35.07;95745.16;6212131;23;20201;-85
2022/07/20 09:02:53;;;;;;;8.38;6.10;;;;;;;31.47;34.36;95747.09;6210852;23;20703;-85
2022/07/20 09:05:20;;;;;;;7.13;5.53;;;;;;;31.55;34.08;95744.50;6211941;23;20977;-84
2022/07/20 09:07:48;;;;;;;7.50;5.63;;;;;;;31.62;34.29;95737.94;6212213;23;20173;-85
2022/07/20 09:10:17;;;;;;;7.15;5.90;;;;;;;31.68;34.31;95745.53;6211809;23;20185;-85
2022/07/20 09:12:56;;;;;;;5.95;5.45;;;;;;;31.86;34.14;95738.38;6211047;23;20201;-85
2022/07/20 09:15:42;;;;;;;6.97;5.55;;;;;;;32.05;33.67;95740.78;6211810;23;20206;-85
2022/07/20 09:18:13;;;;;;;6.13;5.10;;;;;;;32.21;33.46;95744.63;6208374;23;20220;-85
2022/07/20 09:20:45;;;;;;;8.57;5.28;;;;;;;32.26;32.82;95737.28;6210900;23;20169;-85
2022/07/20 09:23:14;;;;;;;6.00;5.50;;;;;;;32.39;33.57;95737.44;6211605;23;20524;-85
2022/07/20 09:25:56;;;;;;;8.10;6.10;;;;;;;32.48;32.30;95739.03;6211326;23;20520;-86
2022/07/20 09:28:23;;;;;;;9.30;5.53;;;;;;;32.66;32.34;95733.72;6212179;23;20176;-86
2022/07/20 09:30:54;;;;;;;9.57;5.63;;;;;;;32.72;30.96;95740.44;6210754;23;20185;-86
2022/07/20 09:33:27;;;;;;;6.25;4.70;;;;;;;32.75;31.24;95740.63;6210784;23;20232;-86
2022/07/20 09:35:59;;;;;;;5.20;4.80;;;;;;;32.84;31.64;95735.31;6211424;23;20534;-86
2022/07/20 09:38:33;;;;;;;5.43;4.93;;;;;;;32.91;31.28;95736.38;6211588;23;20204;-86
2022/07/20 09:41:01;;;;;;;6.90;6.03;;;;;;;32.91;31.13;95739.06;6211149;23;20158;-86
2022/07/20 09:43:30;;;;;;;6.05;5.43;;;;;;;32.86;30.62;95735.78;6211748;23;20209;-85
2022/07/20 09:46:10;;;;;;;6.55;5.28;;;;;;;32.85;31.24;95731.56;6212693;23;20197;-85
2022/07/20 09:48:42;;;;;;;5.78;5.10;;;;;;;32.90;30.46;95734.06;6214695;23;20164;-84
2022/07/20 09:51:21;;;;;;;6.72;5.20;;;;;;;33.12;31.02;95736.53;6215709;23;20422;-84
2022/07/20 09:53:49;;;;;;;7.63;5.00;;;;;;;33.34;31.00;95745.47;6214371;23;20201;-84
2022/07/20 09:56:17;;;;;;;7.95;5.32;;;;;;;33.50;30.27;95741.19;6214387;23;20198;-84
2022/07/20 09:58:46;;;;;;;5.72;4.78;;;;;;;33.67;29.04;95735.81;6214567;23;20194;-85
2022/07/20 10:01:16;;;;;;;5.18;4.75;;;;;;;33.81;28.70;95741.75;6214740;23;20178;-86
2022/07/20 10:03:46;;;;;;;4.97;4.47;;;;;;;33.88;28.58;95734.00;6211706;23;20212;-86
2022/07/20 10:06:13;;;;;;;5.38;4.97;;;;;;;34.06;28.37;95734.69;6212691;23;20198;-86
2022/07/20 10:08:39;;;;;;;6.68;4.85;;;;;;;34.03;27.89;95734.59;6211961;23;20649;-85
2022/07/20 10:11:06;;;;;;;6.00;4.85;;;;;;;34.05;28.11;95735.06;6211008;23;20181;-86
2022/07/20 10:13:33;;;;;;;6.65;5.10;;;;;;;34.06;28.01;95741.97;6210520;23;20201;-86
2022/07/20 10:16:03;;;;;;;7.25;4.85;;;;;;;34.09;27.36;95747.44;6211649;23;20196;-86
2022/07/20 10:18:29;;;;;;;5.57;4.88;;;;;;;34.21;27.62;95731.50;6211554;23;20190;-86
2022/07/20 10:20:57;;;;;;;6.32;5.20;;;;;;;34.36;26.76;95738.19;6210454;23;20675;-86
2022/07/20 10:23:33;;;;;;;5.82;4.90;;;;;;;34.49;26.60;95729.13;6211230;23;20214;-85
2022/07/20 10:26:00;;;;;;;5.43;5.03;;;;;;;34.60;27.01;95727.66;6211023;23;20211;-86
2022/07/20 10:28:29;;;;;;;6.60;4.82;;;;;;;34.63;26.83;95728.88;6211327;23;20173;-86
2022/07/20 10:30:57;;;;;;;5.20;4.70;;;;;;;34.62;25.38;95730.78;6210912;23;20180;-85
2022/07/20 10:33:25;;;;;;;5.15;4.60;;;;;;;34.76;25.54;95733.19;6210156;23;20537;-86
2022/07/20 10:36:41;;;;;;;7.47;4.55;;;;;;;34.85;25.83;95725.09;6211783;23;20232;-86
2022/07/20 10:38:40;;;;;;;6.40;5.00;;;;;;;34.95;26.71;95727.38;6209864;23;20911;-86
2022/07/20 10:44:27;;;;;;;5.85;4.68;;;;;;;35.09;26.42;95730.56;6211022;23;20601;-86
2022/07/20 10:46:54;;;;;;;6.60;4.70;;;;;;;35.10;25.87;95731.34;6211499;23;20185;-86
2022/07/20 10:49:59;;;;;;;5.70;4.68;;;;;;;35.33;26.03;95737.13;6211313;23;20173;-86
2022/07/20 10:52:33;;;;;;;6.70;4.82;;;;;;;35.62;25.29;95726.25;6210197;23;20255;-86
2022/07/20 10:55:01;;;;;;;7.50;4.93;;;;;;;35.68;25.55;95724.91;6211224;23;20260;-86
2022/07/20 10:57:28;;;;;;;5.65;4.60;;;;;;;35.70;24.85;95725.38;6211397;23;20197;-86
2022/07/20 11:00:04;;;;;;;7.07;4.80;;;;;;;35.58;24.41;95723.47;6208365;23;20204;-86
2022/07/20 11:02:33;;;;;;;5.45;4.90;;;;;;;35.70;24.95;95719.22;6210715;23;20165;-86
2022/07/20 11:04:59;;;;;;;5.32;4.45;;;;;;;35.93;24.58;95721.19;6209669;23;20197;-86
2022/07/20 11:07:31;;;;;;;4.80;4.40;;;;;;;36.07;24.14;95717.38;6211205;23;20185;-86
2022/07/20 11:09:58;;;;;;;5.45;4.47;;;;;;;36.12;24.30;95706.41;6210937;23;20257;-86
2022/07/20 11:12:28;;;;;;;6.70;4.57;;;;;;;36.20;23.76;95713.53;6209932;23;20181;-86
2022/07/20 11:14:56;;;;;;;5.05;4.38;;;;;;;36.20;23.49;95703.59;6211701;23;20197;-86
2022/07/20 11:17:22;;;;;;;6.07;4.55;;;;;;;36.32;23.20;95700.94;6211992;23;20276;-87
2022/07/20 11:19:49;;;;;;;4.88;4.22;;;;;;;36.45;22.96;95709.75;6211832;23;20642;-86
2022/07/20 11:22:16;;;;;;;5.10;4.30;;;;;;;36.62;22.77;95700.63;6210851;23;20490;-85
2022/07/20 11:24:42;;;;;;;10.55;4.38;;;;;;;36.76;22.79;95697.59;6211755;23;20197;-85
2022/07/20 11:27:13;;;;;;;4.97;4.47;;;;;;;36.82;22.84;95705.06;6212705;23;20184;-85
2022/07/20 11:29:47;;;;;;;7.95;4.82;;;;;;;36.85;21.54;95700.91;6211617;23;20178;-86
2022/07/20 11:32:13;;;;;;;4.30;3.90;;;;;;;36.87;21.89;95699.47;6209783;23;20157;-86
2022/07/20 11:34:45;;;;;;;5.47;4.30;;;;;;;36.84;21.53;95694.78;6210704;23;20193;-86
2022/07/20 11:37:11;;;;;;;7.38;4.47;;;;;;;36.44;21.67;95684.03;6210144;23;20174;-86
2022/07/20 11:39:38;;;;;;;4.60;4.20;;;;;;;36.46;21.93;95687.16;6210741;23;20797;-86
2022/07/20 11:42:11;;;;;;;9.73;4.47;;;;;;;36.52;22.08;95690.41;6209520;23;20631;-86